Flight Track Log - Related Links

Times and Time Zones

All times are in EST time to prevent confusion due to time zone crossing. See the EJA929 flight status page for this flight to view local times or setup timezone preferences in your user account.

Time Position Orientation Groundspeed Altitude Reporting Facility
EST Latitude Longitude Course Direction KTS MPH feet Rate Location/Type
Sat 03:53:29 PM 33.6333 -111.9000 309° West 180 207 2,500  Level Phoenix TRACON
Sat 03:54:35 PM 33.6667 -111.9500 309° West 213 245 5,900 2,215 Climbing Phoenix TRACON
Sat 03:55:58 PM 33.7058 -112.0433 297° West 262 302 8,000 1,779 Climbing Albuquerque Center
Sat 03:57:00 PM 33.7394 -112.1225 297° West 264 304 10,200 2,927 Climbing Albuquerque Center
Sat 03:58:01 PM 33.7989 -112.1767 323° Northwest 286 329 14,000 3,122 Climbing Albuquerque Center
Sat 03:59:03 PM 33.8667 -112.2278 328° Northwest 288 331 16,600 2,634 Climbing Albuquerque Center
Sat 04:00:04 PM 33.9658 -112.2939 331° Northwest 341 392 19,400 2,488 Climbing Albuquerque Center
Sat 04:01:06 PM 34.0592 -112.3528 332° Northwest 374 430 21,700 2,195 Climbing Albuquerque Center
Sat 04:02:07 PM 34.1606 -112.4150 333° Northwest 402 463 23,900 2,195 Climbing Albuquerque Center
Sat 04:03:09 PM 34.2456 -112.5047 319° Northwest 403 464 26,200 2,244 Climbing Albuquerque Center
Sat 04:04:10 PM 34.3078 -112.6189 303° West 404 465 28,500 2,244 Climbing Albuquerque Center
Sat 04:05:12 PM 34.3706 -112.7369 303° West 412 474 30,800 2,244 Climbing Albuquerque Center
Sat 04:06:13 PM 34.4356 -112.8592 303° West 426 490 33,100 1,561 Climbing Albuquerque Center
Sat 04:07:15 PM 34.5117 -112.9986 304° West 444 511 34,000 439 Climbing Albuquerque Center
Sat 04:08:16 PM 34.5839 -113.1367 302° West 472 543 34,000 98 Level Albuquerque Center
Sat 04:09:18 PM 34.6575 -113.2744 303° West 483 556 34,200 878 Climbing Albuquerque Center
Sat 04:10:19 PM 34.7283 -113.4100 302° West 478 550 35,800 1,659 Climbing Albuquerque Center
Sat 04:11:21 PM 34.7992 -113.5433 303° West 472 543 37,600 1,073 Climbing Albuquerque Center
Sat 04:12:22 PM 34.8786 -113.6692 308° West 468 539 38,000 195 Climbing Albuquerque Center
Sat 04:13:24 PM 34.9653 -113.8014 309° West 490 564 38,000  Level Albuquerque Center
Sat 04:14:30 PM 35.0819 -113.9431 315° West 510 587 38,000  Level Los Angeles Center
Sat 04:15:32 PM 35.2053 -114.0364 328° Northwest 522 601 38,000 629 Level Los Angeles Center
Sat 04:16:34 PM 35.3364 -114.1669 321° Northwest 505 581 39,300 968 Climbing Los Angeles Center
Sat 04:17:36 PM 35.4147 -114.2997 306° West 482 555 40,000 341 Climbing Los Angeles Center
Sat 04:18:37 PM 35.4944 -114.4353 306° West 487 560 40,000  Level Los Angeles Center
Sat 04:19:39 PM 35.5736 -114.5725 305° West 491 565 40,000  Level Los Angeles Center
Sat 04:20:41 PM 35.6531 -114.7100 305° West 493 567 40,000  Level Los Angeles Center
Sat 04:21:42 PM 35.7344 -114.8489 306° West 498 573 40,000  Level Los Angeles Center
Sat 04:22:44 PM 35.8128 -114.9856 305° West 492 566 40,000  Level Los Angeles Center
Sat 04:23:46 PM 35.8919 -115.1231 305° West 490 564 40,000  Level Los Angeles Center
Sat 04:24:48 PM 35.9869 -115.2889 305° West 491 565 40,000  Level Los Angeles Center
Sat 04:25:49 PM 36.0667 -115.4281 305° West 493 567 40,000  Level Los Angeles Center
Sat 04:26:51 PM 36.1461 -115.5686 305° West 494 568 40,000  Level Los Angeles Center
Sat 04:27:53 PM 36.2231 -115.7133 303° West 491 565 40,000  Level Los Angeles Center
Sat 04:28:54 PM 36.2636 -115.8742 287° West 480 552 40,000  Level Los Angeles Center
Sat 04:29:56 PM 36.3014 -116.0317 287° West 482 555 40,000  Level Los Angeles Center
Sat 04:30:58 PM 36.3383 -116.1903 286° West 479 551 40,000  Level Los Angeles Center
Sat 04:31:59 PM 36.3764 -116.3561 286° West 479 551 40,000  Level Los Angeles Center
Sat 04:33:01 PM 36.4119 -116.5156 286° West 481 554 40,000  Level Los Angeles Center
Sat 04:34:03 PM 36.4481 -116.6736 286° West 479 551 40,000  Level Los Angeles Center
Sat 04:35:04 PM 36.4831 -116.8308 286° West 475 547 40,000  Level Los Angeles Center
Sat 04:36:06 PM 36.5186 -116.9883 286° West 476 548 40,000  Level Los Angeles Center
Sat 04:37:08 PM 36.5606 -117.1794 285° West 478 550 40,000  Level Los Angeles Center
Sat 04:38:09 PM 36.5953 -117.3367 285° West 477 549 40,000  Level Los Angeles Center
Sat 04:39:11 PM 36.6300 -117.4950 285° West 476 548 40,000  Level Los Angeles Center
Sat 04:40:13 PM 36.6639 -117.6547 285° West 477 549 40,000  Level Los Angeles Center
Sat 04:41:14 PM 36.6983 -117.8142 285° West 478 550 40,000  Level Los Angeles Center
Sat 04:42:16 PM 36.7328 -117.9753 285° West 480 552 40,000  Level Los Angeles Center
Sat 04:43:17 PM 36.7681 -118.1372 285° West 483 556 40,000  Level Los Angeles Center
Sat 04:44:19 PM 36.8108 -118.3400 285° West 487 560 40,000  Level Los Angeles Center
Sat 04:45:21 PM 36.8444 -118.5031 284° West 486 559 40,000  Level Los Angeles Center
Sat 04:46:22 PM 36.8786 -118.6692 284° West 491 565 40,000 -550 Level Los Angeles Center
Sat 04:47:21 PM 36.9094 -118.8250 284° West 482 555 38,900 -1,600 Descending Oakland Center
Sat 04:48:22 PM 36.9431 -118.9844 285° West 477 549 36,800 -2,016 Descending Oakland Center
Sat 04:49:23 PM 36.9747 -119.1450 284° West 478 550 34,800 -2,115 Descending Oakland Center
Sat 04:50:24 PM 37.0078 -119.3086 284° West 487 560 32,500 -2,361 Descending Oakland Center
Sat 04:51:25 PM 37.0397 -119.4711 284° West 483 556 30,000 -2,459 Descending Oakland Center
Sat 04:52:26 PM 37.0711 -119.6319 284° West 478 550 27,500 -2,459 Descending Oakland Center
Sat 04:53:27 PM 37.1011 -119.7856 284° West 459 528 25,000 -2,607 Descending Oakland Center
Sat 04:54:28 PM 37.1361 -119.9628 284° West 460 529 22,200 -2,459 Descending Oakland Center
Sat 04:55:29 PM 37.1642 -120.1131 283° West 446 513 20,000 -1,770 Descending Oakland Center
Sat 04:56:30 PM 37.1944 -120.2658 284° West 449 517 18,600 -1,721 Descending Oakland Center
Sat 04:57:31 PM 37.2139 -120.4119 280° West 426 490 16,500 -2,231 Descending Oakland Center
Sat 04:58:31 PM 37.1833 -120.5667 256° West 432 497 14,100 -2,263 Descending Northern Cal TRACON
Sat 04:59:25 PM 37.1667 -120.6833 260° West 382 440 12,200 -1,632 Descending Northern Cal TRACON
Sat 05:00:25 PM 37.1333 -120.8167 253° West 385 443 11,000 -950 Descending Northern Cal TRACON
Sat 05:01:25 PM 37.1000 -120.9333 250° West 375 432 10,300 -500 Descending Northern Cal TRACON
Sat 05:02:25 PM 37.0833 -121.0667 261° West 385 443 10,000 -190 Descending Northern Cal TRACON
Sat 05:03:31 PM 37.0500 -121.2000 253° West 381 438 9,900 -50 Descending Northern Cal TRACON
Sat 05:04:25 PM 37.0167 -121.3000 247° West 362 417 9,900 -389 Level Northern Cal TRACON
Sat 05:05:19 PM 37.0000 -121.4000 258° West 294 338 9,200 -1,000 Descending Northern Cal TRACON
Sat 05:06:19 PM 36.9833 -121.4833 256° West 271 312 8,000 -1,438 Descending Northern Cal TRACON
Sat 05:07:20 PM 37.0000 -121.5833 282° West 285 328 6,300 -1,050 Descending Northern Cal TRACON
Sat 05:08:19 PM 37.0333 -121.6667 297° West 274 315 5,900 -605 Descending Northern Cal TRACON
Sat 05:09:19 PM 37.0667 -121.7500 297° West 274 315 5,100 -400 Descending Northern Cal TRACON
Sat 05:10:19 PM 37.1167 -121.8333 307° West 278 320 5,100 -53 Level Northern Cal TRACON
Sat 05:11:13 PM 37.1500 -121.8833 310° West 279 321 5,000 -70 Descending Northern Cal TRACON
Sat 05:11:45 PM 37.1886 -121.9094 332° Northwest 274 315 5,000  Level Oakland Center
Sat 05:12:45 PM 37.2531 -121.9492 334° Northwest 263 303 5,000 -496 Level Oakland Center
Sat 05:13:46 PM 37.3106 -121.9956 327° Northwest 251 289 4,000 -1,279 Descending Oakland Center
Sat 05:14:47 PM 37.3600 -122.0417 323° Northwest 233 268 2,400 -787 Descending Oakland Center
Sat 05:15:48 PM 37.4103 -122.0631 341° North 215 247 2,400 -49 Level Oakland Center
Sat 05:16:49 PM 37.4311 -122.0100 64° Northeast 193 222 2,300 -738 Descending Oakland Center
Sat 05:17:50 PM 37.4067 -121.9764 132° Southeast 153 176 900 -1,033 Descending Oakland Center
Sat 05:18:51 PM 37.3803 -121.9478 139° Southeast 133 153 200 -689 Descending Oakland Center

Login

Don't have an account? Register now (free) for customized features, flight alerts, and more!